sensor_id;sensor_type;location;lat;lon;timestamp;pressure;altitude;pressure_sealevel;temperature
28803;BMP280;15949;55.656;37.422;2023-07-13T00:03:29;98564.94;;;11.55
28803;BMP280;15949;55.656;37.422;2023-07-13T00:08:40;98564.97;;;11.58
28803;BMP280;15949;55.656;37.422;2023-07-13T00:13:45;98567.22;;;11.60
28803;BMP280;15949;55.656;37.422;2023-07-13T00:18:51;98575.78;;;11.60
28803;BMP280;15949;55.656;37.422;2023-07-13T00:23:57;98565.78;;;11.62
28803;BMP280;15949;55.656;37.422;2023-07-13T00:29:03;98567.31;;;11.67
28803;BMP280;15949;55.656;37.422;2023-07-13T00:34:09;98565.34;;;11.60
28803;BMP280;15949;55.656;37.422;2023-07-13T00:39:15;98569.09;;;11.59
28803;BMP280;15949;55.656;37.422;2023-07-13T00:44:20;98568.00;;;11.64
28803;BMP280;15949;55.656;37.422;2023-07-13T00:49:30;98563.53;;;11.64
28803;BMP280;15949;55.656;37.422;2023-07-13T00:54:40;98571.28;;;11.57
28803;BMP280;15949;55.656;37.422;2023-07-13T00:59:52;98576.81;;;11.52
28803;BMP280;15949;55.656;37.422;2023-07-13T01:04:59;98564.09;;;11.43
28803;BMP280;15949;55.656;37.422;2023-07-13T01:10:26;98564.41;;;11.42
28803;BMP280;15949;55.656;37.422;2023-07-13T01:15:41;98558.09;;;11.43
28803;BMP280;15949;55.656;37.422;2023-07-13T01:26:00;98552.50;;;11.41
28803;BMP280;15949;55.656;37.422;2023-07-13T01:31:05;98555.88;;;11.45
28803;BMP280;15949;55.656;37.422;2023-07-13T01:36:11;98555.19;;;11.48
28803;BMP280;15949;55.656;37.422;2023-07-13T01:41:17;98551.47;;;11.49
28803;BMP280;15949;55.656;37.422;2023-07-13T01:46:23;98539.94;;;11.50
28803;BMP280;15949;55.656;37.422;2023-07-13T01:51:28;98537.31;;;11.50
28803;BMP280;15949;55.656;37.422;2023-07-13T01:56:34;98533.63;;;11.55
28803;BMP280;15949;55.656;37.422;2023-07-13T02:01:39;98522.78;;;11.53
28803;BMP280;15949;55.656;37.422;2023-07-13T02:06:45;98524.69;;;11.56
28803;BMP280;15949;55.656;37.422;2023-07-13T02:11:50;98523.25;;;11.62
28803;BMP280;15949;55.656;37.422;2023-07-13T02:16:56;98521.03;;;11.64
28803;BMP280;15949;55.656;37.422;2023-07-13T02:22:02;98534.47;;;11.69
28803;BMP280;15949;55.656;37.422;2023-07-13T02:27:08;98537.19;;;11.76
28803;BMP280;15949;55.656;37.422;2023-07-13T02:32:13;98534.19;;;11.78
28803;BMP280;15949;55.656;37.422;2023-07-13T02:37:19;98519.38;;;11.85
28803;BMP280;15949;55.656;37.422;2023-07-13T02:42:26;98522.34;;;11.87
28803;BMP280;15949;55.656;37.422;2023-07-13T02:47:32;98512.31;;;11.89
28803;BMP280;15949;55.656;37.422;2023-07-13T02:52:38;98507.84;;;11.93
28803;BMP280;15949;55.656;37.422;2023-07-13T02:57:44;98512.31;;;11.93
28803;BMP280;15949;55.656;37.422;2023-07-13T03:02:49;98511.63;;;11.99
28803;BMP280;15949;55.656;37.422;2023-07-13T03:07:55;98513.16;;;12.04
28803;BMP280;15949;55.656;37.422;2023-07-13T03:13:01;98507.97;;;12.11
28803;BMP280;15949;55.656;37.422;2023-07-13T03:18:06;98511.00;;;12.17
28803;BMP280;15949;55.656;37.422;2023-07-13T03:23:12;98510.28;;;12.20
28803;BMP280;15949;55.656;37.422;2023-07-13T03:28:18;98514.06;;;12.26
28803;BMP280;15949;55.656;37.422;2023-07-13T03:33:23;98514.06;;;12.33
28803;BMP280;15949;55.656;37.422;2023-07-13T03:38:29;98514.13;;;12.40
28803;BMP280;15949;55.656;37.422;2023-07-13T03:43:35;98512.69;;;12.49
28803;BMP280;15949;55.656;37.422;2023-07-13T03:48:42;98506.75;;;12.56
28803;BMP280;15949;55.656;37.422;2023-07-13T03:53:49;98518.38;;;12.69
28803;BMP280;15949;55.656;37.422;2023-07-13T03:58:55;98519.56;;;12.75
28803;BMP280;15949;55.656;37.422;2023-07-13T04:04:01;98516.19;;;12.85
28803;BMP280;15949;55.656;37.422;2023-07-13T04:09:08;98527.03;;;12.84
28803;BMP280;15949;55.656;37.422;2023-07-13T04:14:14;98521.47;;;12.89
28803;BMP280;15949;55.656;37.422;2023-07-13T04:19:20;98529.69;;;12.94
28803;BMP280;15949;55.656;37.422;2023-07-13T04:24:25;98531.19;;;12.88
28803;BMP280;15949;55.656;37.422;2023-07-13T04:29:31;98520.34;;;12.83
28803;BMP280;15949;55.656;37.422;2023-07-13T04:34:37;98519.97;;;12.91
28803;BMP280;15949;55.656;37.422;2023-07-13T04:39:42;98520.00;;;13.02
28803;BMP280;15949;55.656;37.422;2023-07-13T04:44:49;98528.66;;;13.16
28803;BMP280;15949;55.656;37.422;2023-07-13T04:49:54;98520.88;;;13.52
28803;BMP280;15949;55.656;37.422;2023-07-13T04:55:00;98528.72;;;13.76
28803;BMP280;15949;55.656;37.422;2023-07-13T05:00:07;98525.38;;;13.86
28803;BMP280;15949;55.656;37.422;2023-07-13T05:05:13;98530.19;;;13.84
28803;BMP280;15949;55.656;37.422;2023-07-13T05:10:19;98522.34;;;14.02
28803;BMP280;15949;55.656;37.422;2023-07-13T05:15:24;98526.84;;;14.19
28803;BMP280;15949;55.656;37.422;2023-07-13T05:20:30;98523.41;;;14.36
28803;BMP280;15949;55.656;37.422;2023-07-13T05:25:36;98516.66;;;14.49
28803;BMP280;15949;55.656;37.422;2023-07-13T05:30:46;98515.44;;;14.61
28803;BMP280;15949;55.656;37.422;2023-07-13T05:35:52;98521.06;;;14.66
28803;BMP280;15949;55.656;37.422;2023-07-13T05:40:57;98529.53;;;14.99
28803;BMP280;15949;55.656;37.422;2023-07-13T05:46:03;98533.50;;;15.24
28803;BMP280;15949;55.656;37.422;2023-07-13T05:51:08;98517.34;;;15.29
28803;BMP280;15949;55.656;37.422;2023-07-13T05:56:14;98510.47;;;15.46
28803;BMP280;15949;55.656;37.422;2023-07-13T06:01:20;98515.41;;;15.81
28803;BMP280;15949;55.656;37.422;2023-07-13T06:06:26;98515.72;;;15.90
28803;BMP280;15949;55.656;37.422;2023-07-13T06:11:31;98502.84;;;15.99
28803;BMP280;15949;55.656;37.422;2023-07-13T06:16:37;98502.28;;;16.18
28803;BMP280;15949;55.656;37.422;2023-07-13T06:21:42;98501.81;;;16.27
28803;BMP280;15949;55.656;37.422;2023-07-13T06:26:48;98496.50;;;16.31
28803;BMP280;15949;55.656;37.422;2023-07-13T06:31:53;98488.09;;;16.43
28803;BMP280;15949;55.656;37.422;2023-07-13T06:36:59;98488.53;;;16.68
28803;BMP280;15949;55.656;37.422;2023-07-13T06:42:05;98482.44;;;16.74
28803;BMP280;15949;55.656;37.422;2023-07-13T06:47:11;98481.59;;;16.81
28803;BMP280;15949;55.656;37.422;2023-07-13T06:52:16;98496.09;;;16.66
28803;BMP280;15949;55.656;37.422;2023-07-13T06:57:22;98498.38;;;16.60
28803;BMP280;15949;55.656;37.422;2023-07-13T07:02:28;98493.34;;;16.73
28803;BMP280;15949;55.656;37.422;2023-07-13T07:07:33;98492.69;;;16.65
28803;BMP280;15949;55.656;37.422;2023-07-13T07:12:39;98497.03;;;16.49
28803;BMP280;15949;55.656;37.422;2023-07-13T07:17:44;98483.78;;;16.56
28803;BMP280;15949;55.656;37.422;2023-07-13T07:22:50;98483.75;;;16.59
28803;BMP280;15949;55.656;37.422;2023-07-13T07:27:55;98497.69;;;16.56
28803;BMP280;15949;55.656;37.422;2023-07-13T07:33:01;98507.72;;;16.65
28803;BMP280;15949;55.656;37.422;2023-07-13T07:38:07;98504.16;;;16.52
28803;BMP280;15949;55.656;37.422;2023-07-13T07:43:14;98509.25;;;16.66
28803;BMP280;15949;55.656;37.422;2023-07-13T07:48:20;98514.09;;;16.67
28803;BMP280;15949;55.656;37.422;2023-07-13T07:53:26;98510.44;;;16.58
28803;BMP280;15949;55.656;37.422;2023-07-13T07:58:31;98523.53;;;16.35
28803;BMP280;15949;55.656;37.422;2023-07-13T08:03:37;98519.13;;;16.24
28803;BMP280;15949;55.656;37.422;2023-07-13T08:08:43;98524.53;;;16.10
28803;BMP280;15949;55.656;37.422;2023-07-13T08:13:49;98524.88;;;16.12
28803;BMP280;15949;55.656;37.422;2023-07-13T08:18:55;98513.22;;;16.13
28803;BMP280;15949;55.656;37.422;2023-07-13T08:24:00;98531.63;;;16.13
28803;BMP280;15949;55.656;37.422;2023-07-13T08:29:06;98524.56;;;16.07
28803;BMP280;15949;55.656;37.422;2023-07-13T08:34:12;98531.41;;;15.97
28803;BMP280;15949;55.656;37.422;2023-07-13T08:39:17;98519.56;;;15.82
28803;BMP280;15949;55.656;37.422;2023-07-13T08:44:47;98516.59;;;15.77
28803;BMP280;15949;55.656;37.422;2023-07-13T08:49:54;98530.22;;;15.61
28803;BMP280;15949;55.656;37.422;2023-07-13T08:55:09;98528.81;;;15.53
28803;BMP280;15949;55.656;37.422;2023-07-13T09:00:17;98540.50;;;15.45
28803;BMP280;15949;55.656;37.422;2023-07-13T09:05:38;98526.22;;;15.49
28803;BMP280;15949;55.656;37.422;2023-07-13T09:10:49;98532.63;;;15.45
28803;BMP280;15949;55.656;37.422;2023-07-13T09:15:59;98550.69;;;15.36
28803;BMP280;15949;55.656;37.422;2023-07-13T09:26:19;98556.69;;;15.33
28803;BMP280;15949;55.656;37.422;2023-07-13T09:31:42;98552.28;;;15.19
28803;BMP280;15949;55.656;37.422;2023-07-13T09:36:50;98560.63;;;15.04
28803;BMP280;15949;55.656;37.422;2023-07-13T09:47:15;98567.44;;;14.91
28803;BMP280;15949;55.656;37.422;2023-07-13T09:52:22;98559.94;;;14.89
28803;BMP280;15949;55.656;37.422;2023-07-13T09:57:27;98568.56;;;14.90
28803;BMP280;15949;55.656;37.422;2023-07-13T10:02:35;98571.22;;;14.75
28803;BMP280;15949;55.656;37.422;2023-07-13T10:07:44;98564.53;;;14.67
28803;BMP280;15949;55.656;37.422;2023-07-13T10:12:50;98559.28;;;14.67
28803;BMP280;15949;55.656;37.422;2023-07-13T10:17:56;98561.16;;;14.56
28803;BMP280;15949;55.656;37.422;2023-07-13T10:23:11;98566.81;;;14.58
28803;BMP280;15949;55.656;37.422;2023-07-13T10:28:29;98570.22;;;14.45
28803;BMP280;15949;55.656;37.422;2023-07-13T10:33:35;98568.72;;;14.33
28803;BMP280;15949;55.656;37.422;2023-07-13T10:38:41;98570.59;;;14.26
28803;BMP280;15949;55.656;37.422;2023-07-13T10:43:50;98568.78;;;14.19
28803;BMP280;15949;55.656;37.422;2023-07-13T10:48:59;98579.97;;;14.16
28803;BMP280;15949;55.656;37.422;2023-07-13T10:54:19;98591.59;;;14.22
28803;BMP280;15949;55.656;37.422;2023-07-13T10:59:27;98594.56;;;14.21
28803;BMP280;15949;55.656;37.422;2023-07-13T11:04:45;98591.97;;;14.17
28803;BMP280;15949;55.656;37.422;2023-07-13T11:09:58;98580.38;;;14.07
28803;BMP280;15949;55.656;37.422;2023-07-13T11:15:10;98579.63;;;14.10
28803;BMP280;15949;55.656;37.422;2023-07-13T11:25:30;98571.00;;;14.17
28803;BMP280;15949;55.656;37.422;2023-07-13T11:47:11;98560.50;;;14.24
28803;BMP280;15949;55.656;37.422;2023-07-13T11:52:31;98567.25;;;14.29
28803;BMP280;15949;55.656;37.422;2023-07-13T12:02:57;98571.38;;;14.12
28803;BMP280;15949;55.656;37.422;2023-07-13T12:08:11;98570.63;;;14.08
28803;BMP280;15949;55.656;37.422;2023-07-13T12:13:16;98572.88;;;14.02
28803;BMP280;15949;55.656;37.422;2023-07-13T12:18:23;98568.03;;;14.01
28803;BMP280;15949;55.656;37.422;2023-07-13T12:23:35;98567.66;;;13.92
28803;BMP280;15949;55.656;37.422;2023-07-13T12:28:48;98563.53;;;13.91
28803;BMP280;15949;55.656;37.422;2023-07-13T12:34:08;98553.06;;;13.84
28803;BMP280;15949;55.656;37.422;2023-07-13T12:44:27;98545.19;;;13.77
28803;BMP280;15949;55.656;37.422;2023-07-13T12:49:33;98537.34;;;13.77
28803;BMP280;15949;55.656;37.422;2023-07-13T12:54:40;98545.19;;;13.80
28803;BMP280;15949;55.656;37.422;2023-07-13T12:59:46;98558.28;;;13.80
28803;BMP280;15949;55.656;37.422;2023-07-13T13:04:51;98558.69;;;13.79
28803;BMP280;15949;55.656;37.422;2023-07-13T13:09:57;98566.13;;;13.80
28803;BMP280;15949;55.656;37.422;2023-07-13T13:15:03;98560.16;;;13.76
28803;BMP280;15949;55.656;37.422;2023-07-13T13:20:16;98546.31;;;13.69
28803;BMP280;15949;55.656;37.422;2023-07-13T13:25:22;98548.91;;;13.62
28803;BMP280;15949;55.656;37.422;2023-07-13T13:30:28;98549.66;;;13.59
28803;BMP280;15949;55.656;37.422;2023-07-13T13:35:34;98541.44;;;13.60
28803;BMP280;15949;55.656;37.422;2023-07-13T13:40:40;98533.22;;;13.62
28803;BMP280;15949;55.656;37.422;2023-07-13T13:45:46;98532.09;;;13.52
28803;BMP280;15949;55.656;37.422;2023-07-13T13:50:52;98528.34;;;13.50
28803;BMP280;15949;55.656;37.422;2023-07-13T13:55:58;98520.47;;;13.50
28803;BMP280;15949;55.656;37.422;2023-07-13T14:01:09;98517.13;;;13.45
28803;BMP280;15949;55.656;37.422;2023-07-13T14:06:17;98530.22;;;13.42
28803;BMP280;15949;55.656;37.422;2023-07-13T14:11:23;98524.97;;;13.31
28803;BMP280;15949;55.656;37.422;2023-07-13T14:16:30;98519.72;;;13.35
28803;BMP280;15949;55.656;37.422;2023-07-13T14:21:37;98538.41;;;13.33
28803;BMP280;15949;55.656;37.422;2023-07-13T14:26:43;98525.69;;;13.32
28803;BMP280;15949;55.656;37.422;2023-07-13T14:31:48;98516.72;;;13.29
28803;BMP280;15949;55.656;37.422;2023-07-13T14:36:54;98513.34;;;13.29
28803;BMP280;15949;55.656;37.422;2023-07-13T14:41:59;98513.72;;;13.24
28803;BMP280;15949;55.656;37.422;2023-07-13T14:47:06;98521.16;;;13.22
28803;BMP280;15949;55.656;37.422;2023-07-13T14:52:16;98515.94;;;13.15
28803;BMP280;15949;55.656;37.422;2023-07-13T14:57:22;98527.13;;;13.08
28803;BMP280;15949;55.656;37.422;2023-07-13T15:02:32;98533.50;;;13.07
28803;BMP280;15949;55.656;37.422;2023-07-13T15:07:37;98530.13;;;13.07
28803;BMP280;15949;55.656;37.422;2023-07-13T15:12:43;98523.75;;;13.08
28803;BMP280;15949;55.656;37.422;2023-07-13T15:17:49;98530.84;;;13.00
28803;BMP280;15949;55.656;37.422;2023-07-13T15:22:55;98528.94;;;12.94
28803;BMP280;15949;55.656;37.422;2023-07-13T15:28:01;98526.75;;;12.99
28803;BMP280;15949;55.656;37.422;2023-07-13T15:33:16;98515.16;;;13.04
28803;BMP280;15949;55.656;37.422;2023-07-13T15:38:29;98519.28;;;13.08
28803;BMP280;15949;55.656;37.422;2023-07-13T15:43:34;98508.47;;;13.10
28803;BMP280;15949;55.656;37.422;2023-07-13T15:48:40;98499.09;;;13.02
28803;BMP280;15949;55.656;37.422;2023-07-13T20:39:35;98567.50;;;13.07
28803;BMP280;15949;55.656;37.422;2023-07-13T20:44:41;98576.47;;;13.03
28803;BMP280;15949;55.656;37.422;2023-07-13T20:49:47;98570.47;;;13.06
28803;BMP280;15949;55.656;37.422;2023-07-13T20:54:53;98567.88;;;13.09
28803;BMP280;15949;55.656;37.422;2023-07-13T21:49:25;98547.97;;;12.84
28803;BMP280;15949;55.656;37.422;2023-07-13T21:54:31;98546.88;;;12.88
28803;BMP280;15949;55.656;37.422;2023-07-13T21:59:36;98549.50;;;12.88
28803;BMP280;15949;55.656;37.422;2023-07-13T22:04:42;98542.03;;;12.94
28803;BMP280;15949;55.656;37.422;2023-07-13T22:09:49;98533.09;;;12.98
28803;BMP280;15949;55.656;37.422;2023-07-13T22:14:55;98518.16;;;13.02
28803;BMP280;15949;55.656;37.422;2023-07-13T22:20:01;98527.50;;;13.03
28803;BMP280;15949;55.656;37.422;2023-07-13T22:25:08;98527.47;;;12.93
28803;BMP280;15949;55.656;37.422;2023-07-13T22:30:16;98527.06;;;12.94
28803;BMP280;15949;55.656;37.422;2023-07-13T22:35:22;98525.59;;;12.93
28803;BMP280;15949;55.656;37.422;2023-07-13T22:40:31;98525.19;;;12.84
28803;BMP280;15949;55.656;37.422;2023-07-13T22:45:37;98526.28;;;12.83
28803;BMP280;15949;55.656;37.422;2023-07-13T22:50:43;98525.16;;;12.77
28803;BMP280;15949;55.656;37.422;2023-07-13T22:55:49;98524.03;;;12.74
28803;BMP280;15949;55.656;37.422;2023-07-13T23:00:58;98519.56;;;12.71
28803;BMP280;15949;55.656;37.422;2023-07-13T23:06:04;98521.75;;;12.73
28803;BMP280;15949;55.656;37.422;2023-07-13T23:11:10;98518.06;;;12.81
28803;BMP280;15949;55.656;37.422;2023-07-13T23:16:19;98522.19;;;12.82
28803;BMP280;15949;55.656;37.422;2023-07-13T23:21:25;98524.44;;;12.84
28803;BMP280;15949;55.656;37.422;2023-07-13T23:26:30;98515.44;;;12.81
28803;BMP280;15949;55.656;37.422;2023-07-13T23:31:36;98521.81;;;12.80
28803;BMP280;15949;55.656;37.422;2023-07-13T23:36:42;98506.13;;;12.80
28803;BMP280;15949;55.656;37.422;2023-07-13T23:41:47;98512.84;;;12.81
28803;BMP280;15949;55.656;37.422;2023-07-13T23:46:54;98525.53;;;12.79
28803;BMP280;15949;55.656;37.422;2023-07-13T23:52:08;98520.31;;;12.79
28803;BMP280;15949;55.656;37.422;2023-07-13T23:57:14;98521.81;;;12.80
